Trevelin, Argentina
Current Conditions -  °F | °C
As of 5:00 PM on Saturday 25 Oct 2014 (Local Time) from SAVE Reporting Station
Clear Clear  
Wind Chill: 70°   Ceiling: Unl
Heat Index: 70°   Visibility: 6mi
Dew Point: 23°   Wind: 23mph
Humidity: 17%   Direction: 270°W
Pressure: 29.8"   Gusts: 36mph
Location:  43.07°S, 71.47°W
Report Text: SAVE 252000Z 27020G31KT CAVOK 21/M05 Q1009
Loading
Personal Weather Stations






























Interactive Weather Map
Tropical Storm Tracking
New forecast layout! Learn more

10-Day Weather Forecast

Advertisements
Track Severe Weather on mobile